END weather

Las Encantadas Airstrip
Ensenada, Baja California, Mexico

Public forecast

Using degrees Celsius for public forecast. Weather courtesy of forecast.io.

Closest aviation weather report (METAR) to Las Encantadas Airstrip

Closest report is (Old) Puerto PeƱasco Airport, 99.5 nm (184.4 km) NNE. Retrieved UTC (0 seconds ago):

Closest aviation forecast (TAF) to Las Encantadas Airstrip

Forecast is more than 6 hours old.

Closest forecast is General Ignacio P. Garcia International Airport, 185.3 nm (343.1 km) ESE. Retrieved 2020/06/01 06:51 UTC (9 hours ago):

TAF MMHO 010450Z 0106/0206 03005KT P6SM BKN030 TEMPO 0106/0110 5SM RA FM011000 00000KT P6SM SCT030 FM011800 24015KT P6SM SKC BECMG 0200/0201 23005KT